sensor_id;sensor_type;location;lat;lon;timestamp;temperature;humidity
12845;DHT22;6489;48.508;9.206;2023-02-13T00:02:31;19.60;99.90
12845;DHT22;6489;48.508;9.206;2023-02-13T00:05:53;19.70;99.90
12845;DHT22;6489;48.508;9.206;2023-02-13T00:09:15;19.60;99.90
12845;DHT22;6489;48.508;9.206;2023-02-13T00:12:38;19.60;99.90
12845;DHT22;6489;48.508;9.206;2023-02-13T00:16:02;19.60;99.90
12845;DHT22;6489;48.508;9.206;2023-02-13T00:19:24;19.60;99.90
12845;DHT22;6489;48.508;9.206;2023-02-13T00:22:46;19.60;99.90
12845;DHT22;6489;48.508;9.206;2023-02-13T00:26:10;19.60;99.90
12845;DHT22;6489;48.508;9.206;2023-02-13T00:29:33;19.60;99.90
12845;DHT22;6489;48.508;9.206;2023-02-13T00:32:55;19.60;99.90
12845;DHT22;6489;48.508;9.206;2023-02-13T00:36:18;19.60;99.90
12845;DHT22;6489;48.508;9.206;2023-02-13T00:39:41;19.60;99.90
12845;DHT22;6489;48.508;9.206;2023-02-13T00:43:02;19.60;99.90
12845;DHT22;6489;48.508;9.206;2023-02-13T00:46:26;19.60;99.90
12845;DHT22;6489;48.508;9.206;2023-02-13T00:49:47;19.60;99.90
12845;DHT22;6489;48.508;9.206;2023-02-13T00:53:09;19.60;99.90
12845;DHT22;6489;48.508;9.206;2023-02-13T00:56:32;19.60;99.90
12845;DHT22;6489;48.508;9.206;2023-02-13T00:59:54;19.50;99.90
12845;DHT22;6489;48.508;9.206;2023-02-13T01:03:17;19.60;99.90
12845;DHT22;6489;48.508;9.206;2023-02-13T01:06:39;19.50;99.90
12845;DHT22;6489;48.508;9.206;2023-02-13T01:10:01;19.60;99.90
12845;DHT22;6489;48.508;9.206;2023-02-13T01:13:24;19.50;99.90
12845;DHT22;6489;48.508;9.206;2023-02-13T01:16:46;19.50;99.90
12845;DHT22;6489;48.508;9.206;2023-02-13T01:20:11;19.50;99.90
12845;DHT22;6489;48.508;9.206;2023-02-13T01:23:36;19.50;99.90
12845;DHT22;6489;48.508;9.206;2023-02-13T01:26:58;19.50;99.90
12845;DHT22;6489;48.508;9.206;2023-02-13T01:30:22;19.50;99.90
12845;DHT22;6489;48.508;9.206;2023-02-13T01:33:43;19.50;99.90
12845;DHT22;6489;48.508;9.206;2023-02-13T01:37:06;19.50;99.90
12845;DHT22;6489;48.508;9.206;2023-02-13T01:40:28;19.50;99.90
12845;DHT22;6489;48.508;9.206;2023-02-13T01:43:52;19.50;99.90
12845;DHT22;6489;48.508;9.206;2023-02-13T01:47:21;19.50;99.90
12845;DHT22;6489;48.508;9.206;2023-02-13T01:50:47;19.50;99.90
12845;DHT22;6489;48.508;9.206;2023-02-13T01:54:14;19.50;99.90
12845;DHT22;6489;48.508;9.206;2023-02-13T01:57:36;19.40;99.90
12845;DHT22;6489;48.508;9.206;2023-02-13T02:01:00;19.50;99.90
12845;DHT22;6489;48.508;9.206;2023-02-13T02:04:25;19.40;99.90
12845;DHT22;6489;48.508;9.206;2023-02-13T02:07:50;19.50;99.90
12845;DHT22;6489;48.508;9.206;2023-02-13T02:11:19;19.40;99.90
12845;DHT22;6489;48.508;9.206;2023-02-13T02:14:43;19.40;99.90
12845;DHT22;6489;48.508;9.206;2023-02-13T02:18:06;19.40;99.90
12845;DHT22;6489;48.508;9.206;2023-02-13T02:21:51;19.40;99.90
12845;DHT22;6489;48.508;9.206;2023-02-13T02:25:44;19.40;99.90
12845;DHT22;6489;48.508;9.206;2023-02-13T02:29:21;19.40;99.90
12845;DHT22;6489;48.508;9.206;2023-02-13T02:32:55;19.40;99.90
12845;DHT22;6489;48.508;9.206;2023-02-13T02:36:28;19.40;99.90
12845;DHT22;6489;48.508;9.206;2023-02-13T02:40:02;19.40;99.90
12845;DHT22;6489;48.508;9.206;2023-02-13T02:43:39;19.40;99.90
12845;DHT22;6489;48.508;9.206;2023-02-13T02:47:09;19.40;99.90
12845;DHT22;6489;48.508;9.206;2023-02-13T02:50:57;19.40;99.90
12845;DHT22;6489;48.508;9.206;2023-02-13T02:54:25;19.40;99.90
12845;DHT22;6489;48.508;9.206;2023-02-13T02:58:11;19.40;99.90
12845;DHT22;6489;48.508;9.206;2023-02-13T03:01:52;19.30;99.90
12845;DHT22;6489;48.508;9.206;2023-02-13T03:05:34;19.40;99.90
12845;DHT22;6489;48.508;9.206;2023-02-13T03:09:17;19.40;99.90
12845;DHT22;6489;48.508;9.206;2023-02-13T03:13:16;19.30;99.90
12845;DHT22;6489;48.508;9.206;2023-02-13T03:16:49;19.30;99.90
12845;DHT22;6489;48.508;9.206;2023-02-13T03:20:39;19.30;99.90
12845;DHT22;6489;48.508;9.206;2023-02-13T03:24:24;19.30;99.90
12845;DHT22;6489;48.508;9.206;2023-02-13T03:27:52;19.40;99.90
12845;DHT22;6489;48.508;9.206;2023-02-13T03:31:37;19.30;99.90
12845;DHT22;6489;48.508;9.206;2023-02-13T03:35:15;19.30;99.90
12845;DHT22;6489;48.508;9.206;2023-02-13T03:39:02;19.30;99.90
12845;DHT22;6489;48.508;9.206;2023-02-13T03:42:31;19.30;99.90
12845;DHT22;6489;48.508;9.206;2023-02-13T03:45:54;19.30;99.90
12845;DHT22;6489;48.508;9.206;2023-02-13T03:49:20;19.30;99.90
12845;DHT22;6489;48.508;9.206;2023-02-13T03:53:02;19.30;99.90
12845;DHT22;6489;48.508;9.206;2023-02-13T03:56:28;19.30;99.90
12845;DHT22;6489;48.508;9.206;2023-02-13T04:00:13;19.30;99.90
12845;DHT22;6489;48.508;9.206;2023-02-13T04:03:41;19.30;99.90
12845;DHT22;6489;48.508;9.206;2023-02-13T04:07:07;19.20;99.90
12845;DHT22;6489;48.508;9.206;2023-02-13T04:10:32;19.20;99.90
12845;DHT22;6489;48.508;9.206;2023-02-13T04:13:58;19.20;99.90
12845;DHT22;6489;48.508;9.206;2023-02-13T04:17:26;19.30;99.90
12845;DHT22;6489;48.508;9.206;2023-02-13T04:20:50;19.20;99.90
12845;DHT22;6489;48.508;9.206;2023-02-13T04:24:12;19.20;99.90
12845;DHT22;6489;48.508;9.206;2023-02-13T04:27:34;19.20;99.90
12845;DHT22;6489;48.508;9.206;2023-02-13T04:30:56;19.20;99.90
12845;DHT22;6489;48.508;9.206;2023-02-13T04:34:20;19.20;99.90
12845;DHT22;6489;48.508;9.206;2023-02-13T04:37:41;19.20;99.90
12845;DHT22;6489;48.508;9.206;2023-02-13T04:41:03;19.20;99.90
12845;DHT22;6489;48.508;9.206;2023-02-13T04:44:25;19.20;99.90
12845;DHT22;6489;48.508;9.206;2023-02-13T04:47:50;19.10;99.90
12845;DHT22;6489;48.508;9.206;2023-02-13T04:51:14;19.10;99.90
12845;DHT22;6489;48.508;9.206;2023-02-13T04:54:36;19.10;99.90
12845;DHT22;6489;48.508;9.206;2023-02-13T04:57:58;19.00;99.90
12845;DHT22;6489;48.508;9.206;2023-02-13T05:01:19;19.00;99.90
12845;DHT22;6489;48.508;9.206;2023-02-13T05:04:41;19.00;99.90
12845;DHT22;6489;48.508;9.206;2023-02-13T05:08:06;19.00;99.90
12845;DHT22;6489;48.508;9.206;2023-02-13T05:11:28;19.00;99.90
12845;DHT22;6489;48.508;9.206;2023-02-13T05:14:50;18.90;99.90
12845;DHT22;6489;48.508;9.206;2023-02-13T05:18:11;19.00;99.90
12845;DHT22;6489;48.508;9.206;2023-02-13T05:21:35;19.00;99.90
12845;DHT22;6489;48.508;9.206;2023-02-13T05:25:15;19.00;99.90
12845;DHT22;6489;48.508;9.206;2023-02-13T05:28:37;19.00;99.90
12845;DHT22;6489;48.508;9.206;2023-02-13T05:32:16;19.00;99.90
12845;DHT22;6489;48.508;9.206;2023-02-13T05:35:38;19.00;99.90
12845;DHT22;6489;48.508;9.206;2023-02-13T05:39:00;19.00;99.90
12845;DHT22;6489;48.508;9.206;2023-02-13T05:42:23;19.00;99.90
12845;DHT22;6489;48.508;9.206;2023-02-13T05:45:45;19.00;99.90
12845;DHT22;6489;48.508;9.206;2023-02-13T05:49:08;19.00;99.90
12845;DHT22;6489;48.508;9.206;2023-02-13T05:52:30;19.00;99.90
12845;DHT22;6489;48.508;9.206;2023-02-13T05:55:52;19.10;99.90
12845;DHT22;6489;48.508;9.206;2023-02-13T05:59:16;19.00;99.90
12845;DHT22;6489;48.508;9.206;2023-02-13T06:02:37;19.00;99.90
12845;DHT22;6489;48.508;9.206;2023-02-13T06:05:59;19.00;99.90
12845;DHT22;6489;48.508;9.206;2023-02-13T06:09:21;19.00;99.90
12845;DHT22;6489;48.508;9.206;2023-02-13T06:12:43;19.00;99.90
12845;DHT22;6489;48.508;9.206;2023-02-13T06:16:07;19.10;99.90
12845;DHT22;6489;48.508;9.206;2023-02-13T06:19:28;19.00;99.90
12845;DHT22;6489;48.508;9.206;2023-02-13T06:22:51;19.10;99.90
12845;DHT22;6489;48.508;9.206;2023-02-13T06:26:13;19.10;99.90
12845;DHT22;6489;48.508;9.206;2023-02-13T06:29:35;19.10;99.90
12845;DHT22;6489;48.508;9.206;2023-02-13T06:32:58;19.10;99.90
12845;DHT22;6489;48.508;9.206;2023-02-13T06:36:20;19.10;99.90
12845;DHT22;6489;48.508;9.206;2023-02-13T06:39:42;19.10;99.90
12845;DHT22;6489;48.508;9.206;2023-02-13T06:43:04;19.20;99.90
12845;DHT22;6489;48.508;9.206;2023-02-13T06:46:26;19.20;99.90
12845;DHT22;6489;48.508;9.206;2023-02-13T06:49:50;19.20;99.90
12845;DHT22;6489;48.508;9.206;2023-02-13T06:53:11;19.20;99.90
12845;DHT22;6489;48.508;9.206;2023-02-13T06:56:33;19.20;99.90
12845;DHT22;6489;48.508;9.206;2023-02-13T06:59:55;19.20;99.90
12845;DHT22;6489;48.508;9.206;2023-02-13T07:03:17;19.20;99.90
12845;DHT22;6489;48.508;9.206;2023-02-13T07:06:40;19.20;99.90
12845;DHT22;6489;48.508;9.206;2023-02-13T07:10:04;19.20;99.90
12845;DHT22;6489;48.508;9.206;2023-02-13T07:13:26;19.20;99.90
12845;DHT22;6489;48.508;9.206;2023-02-13T07:16:48;19.20;99.90
12845;DHT22;6489;48.508;9.206;2023-02-13T07:20:10;19.10;99.90
12845;DHT22;6489;48.508;9.206;2023-02-13T07:23:34;19.00;99.90
12845;DHT22;6489;48.508;9.206;2023-02-13T07:26:56;18.70;99.90
12845;DHT22;6489;48.508;9.206;2023-02-13T07:30:18;18.50;99.90
12845;DHT22;6489;48.508;9.206;2023-02-13T07:33:40;18.40;99.90
12845;DHT22;6489;48.508;9.206;2023-02-13T07:37:02;18.50;99.90
12845;DHT22;6489;48.508;9.206;2023-02-13T07:40:25;18.50;99.90
12845;DHT22;6489;48.508;9.206;2023-02-13T07:43:47;18.70;99.90
12845;DHT22;6489;48.508;9.206;2023-02-13T07:47:25;18.80;99.90
12845;DHT22;6489;48.508;9.206;2023-02-13T07:50:47;18.90;99.90
12845;DHT22;6489;48.508;9.206;2023-02-13T07:54:08;19.00;99.90
12845;DHT22;6489;48.508;9.206;2023-02-13T07:57:32;19.10;99.90
12845;DHT22;6489;48.508;9.206;2023-02-13T08:00:54;19.20;99.90
12845;DHT22;6489;48.508;9.206;2023-02-13T08:04:16;19.20;99.90
12845;DHT22;6489;48.508;9.206;2023-02-13T08:11:04;19.30;99.90
12845;DHT22;6489;48.508;9.206;2023-02-13T08:14:46;19.40;99.90
12845;DHT22;6489;48.508;9.206;2023-02-13T08:21:33;19.50;99.90
12845;DHT22;6489;48.508;9.206;2023-02-13T08:24:57;19.50;99.90
12845;DHT22;6489;48.508;9.206;2023-02-13T08:28:19;19.50;99.90
12845;DHT22;6489;48.508;9.206;2023-02-13T08:35:20;19.60;99.90
12845;DHT22;6489;48.508;9.206;2023-02-13T08:38:46;19.60;99.90
12845;DHT22;6489;48.508;9.206;2023-02-13T08:42:08;19.60;99.90
12845;DHT22;6489;48.508;9.206;2023-02-13T08:45:30;19.70;99.90
12845;DHT22;6489;48.508;9.206;2023-02-13T08:48:53;19.70;99.90
12845;DHT22;6489;48.508;9.206;2023-02-13T08:52:16;19.80;99.90
12845;DHT22;6489;48.508;9.206;2023-02-13T08:55:38;19.90;99.90
12845;DHT22;6489;48.508;9.206;2023-02-13T08:59:00;19.90;99.90
12845;DHT22;6489;48.508;9.206;2023-02-13T09:02:22;19.90;99.90
12845;DHT22;6489;48.508;9.206;2023-02-13T09:05:44;19.90;99.90
12845;DHT22;6489;48.508;9.206;2023-02-13T09:09:08;19.90;99.90
12845;DHT22;6489;48.508;9.206;2023-02-13T09:12:30;20.00;99.90
12845;DHT22;6489;48.508;9.206;2023-02-13T09:15:52;20.00;99.90
12845;DHT22;6489;48.508;9.206;2023-02-13T09:19:14;20.00;99.90
12845;DHT22;6489;48.508;9.206;2023-02-13T09:22:36;20.10;99.90
12845;DHT22;6489;48.508;9.206;2023-02-13T09:26:00;20.10;99.90
12845;DHT22;6489;48.508;9.206;2023-02-13T09:29:22;20.20;99.90
12845;DHT22;6489;48.508;9.206;2023-02-13T09:32:44;20.20;99.90
12845;DHT22;6489;48.508;9.206;2023-02-13T09:36:07;20.20;99.90
12845;DHT22;6489;48.508;9.206;2023-02-13T09:39:30;20.30;99.90
12845;DHT22;6489;48.508;9.206;2023-02-13T09:43:03;20.30;99.90
12845;DHT22;6489;48.508;9.206;2023-02-13T09:46:30;20.30;99.90
12845;DHT22;6489;48.508;9.206;2023-02-13T09:49:55;20.30;99.90
12845;DHT22;6489;48.508;9.206;2023-02-13T09:53:21;20.30;99.90
12845;DHT22;6489;48.508;9.206;2023-02-13T09:56:47;20.40;99.90
12845;DHT22;6489;48.508;9.206;2023-02-13T10:00:20;20.50;99.90
12845;DHT22;6489;48.508;9.206;2023-02-13T10:03:44;20.50;99.90
12845;DHT22;6489;48.508;9.206;2023-02-13T10:07:14;20.50;99.90
12845;DHT22;6489;48.508;9.206;2023-02-13T10:10:49;20.50;99.90
12845;DHT22;6489;48.508;9.206;2023-02-13T10:14:16;20.50;99.90
12845;DHT22;6489;48.508;9.206;2023-02-13T10:17:42;20.60;99.90
12845;DHT22;6489;48.508;9.206;2023-02-13T10:21:06;20.70;99.90
12845;DHT22;6489;48.508;9.206;2023-02-13T10:24:32;20.70;99.90
12845;DHT22;6489;48.508;9.206;2023-02-13T10:28:01;20.80;99.90
12845;DHT22;6489;48.508;9.206;2023-02-13T10:31:24;20.80;99.90
12845;DHT22;6489;48.508;9.206;2023-02-13T10:34:48;20.90;99.90
12845;DHT22;6489;48.508;9.206;2023-02-13T10:38:15;21.00;99.90
12845;DHT22;6489;48.508;9.206;2023-02-13T10:41:46;20.90;99.90
12845;DHT22;6489;48.508;9.206;2023-02-13T10:45:27;21.10;99.90
12845;DHT22;6489;48.508;9.206;2023-02-13T10:49:03;21.20;99.90
12845;DHT22;6489;48.508;9.206;2023-02-13T10:52:41;21.20;99.90
12845;DHT22;6489;48.508;9.206;2023-02-13T11:00:03;21.20;99.90
12845;DHT22;6489;48.508;9.206;2023-02-13T11:03:26;21.20;99.90
12845;DHT22;6489;48.508;9.206;2023-02-13T11:06:54;21.40;99.90
12845;DHT22;6489;48.508;9.206;2023-02-13T11:10:20;21.40;99.90
12845;DHT22;6489;48.508;9.206;2023-02-13T11:13:42;21.30;99.90
12845;DHT22;6489;48.508;9.206;2023-02-13T11:17:05;21.30;99.90
12845;DHT22;6489;48.508;9.206;2023-02-13T11:20:32;21.30;99.90
12845;DHT22;6489;48.508;9.206;2023-02-13T11:27:23;21.30;99.90
12845;DHT22;6489;48.508;9.206;2023-02-13T11:30:46;21.40;99.90
12845;DHT22;6489;48.508;9.206;2023-02-13T11:34:23;21.30;99.90
12845;DHT22;6489;48.508;9.206;2023-02-13T11:37:45;21.40;99.90
12845;DHT22;6489;48.508;9.206;2023-02-13T11:41:09;21.50;99.90
12845;DHT22;6489;48.508;9.206;2023-02-13T11:44:33;21.50;99.90
12845;DHT22;6489;48.508;9.206;2023-02-13T11:47:55;21.40;99.90
12845;DHT22;6489;48.508;9.206;2023-02-13T11:51:17;21.40;99.90
12845;DHT22;6489;48.508;9.206;2023-02-13T11:54:41;21.50;99.90
12845;DHT22;6489;48.508;9.206;2023-02-13T11:58:22;21.60;99.90
12845;DHT22;6489;48.508;9.206;2023-02-13T12:01:46;21.70;99.90
12845;DHT22;6489;48.508;9.206;2023-02-13T12:05:15;21.80;99.90
12845;DHT22;6489;48.508;9.206;2023-02-13T12:08:38;21.80;99.90
12845;DHT22;6489;48.508;9.206;2023-02-13T12:12:02;21.80;99.90
12845;DHT22;6489;48.508;9.206;2023-02-13T12:15:26;21.40;99.90
12845;DHT22;6489;48.508;9.206;2023-02-13T12:18:52;20.30;99.90
12845;DHT22;6489;48.508;9.206;2023-02-13T12:22:26;19.50;99.90
12845;DHT22;6489;48.508;9.206;2023-02-13T12:26:05;19.50;99.90
12845;DHT22;6489;48.508;9.206;2023-02-13T12:29:55;17.90;99.90
12845;DHT22;6489;48.508;9.206;2023-02-13T12:33:35;18.10;99.90
12845;DHT22;6489;48.508;9.206;2023-02-13T12:37:12;18.10;99.90
12845;DHT22;6489;48.508;9.206;2023-02-13T12:44:47;17.70;99.90
12845;DHT22;6489;48.508;9.206;2023-02-13T12:48:23;17.70;99.90
12845;DHT22;6489;48.508;9.206;2023-02-13T12:51:55;17.70;99.90
12845;DHT22;6489;48.508;9.206;2023-02-13T12:59:18;17.90;99.90
12845;DHT22;6489;48.508;9.206;2023-02-13T13:03:10;18.10;99.90
12845;DHT22;6489;48.508;9.206;2023-02-13T13:07:10;18.60;99.90
12845;DHT22;6489;48.508;9.206;2023-02-13T13:10:46;18.60;99.90
12845;DHT22;6489;48.508;9.206;2023-02-13T13:14:15;19.00;99.90
12845;DHT22;6489;48.508;9.206;2023-02-13T13:21:29;19.50;99.90
12845;DHT22;6489;48.508;9.206;2023-02-13T13:25:02;19.60;99.90
12845;DHT22;6489;48.508;9.206;2023-02-13T13:28:31;19.50;99.90
12845;DHT22;6489;48.508;9.206;2023-02-13T13:31:56;19.60;99.90
12845;DHT22;6489;48.508;9.206;2023-02-13T13:35:20;19.80;99.90
12845;DHT22;6489;48.508;9.206;2023-02-13T13:38:50;19.90;99.90
12845;DHT22;6489;48.508;9.206;2023-02-13T13:42:19;20.10;99.90
12845;DHT22;6489;48.508;9.206;2023-02-13T13:45:49;20.00;99.90
12845;DHT22;6489;48.508;9.206;2023-02-13T13:49:29;20.10;99.90
12845;DHT22;6489;48.508;9.206;2023-02-13T13:53:06;21.20;99.90
12845;DHT22;6489;48.508;9.206;2023-02-13T13:57:05;21.80;99.90
12845;DHT22;6489;48.508;9.206;2023-02-13T14:00:29;22.20;99.90
12845;DHT22;6489;48.508;9.206;2023-02-13T14:03:54;23.20;99.90
12845;DHT22;6489;48.508;9.206;2023-02-13T14:07:22;23.60;99.90
12845;DHT22;6489;48.508;9.206;2023-02-13T14:11:00;23.60;99.90
12845;DHT22;6489;48.508;9.206;2023-02-13T14:14:49;23.60;99.90
12845;DHT22;6489;48.508;9.206;2023-02-13T14:18:19;23.40;99.90
12845;DHT22;6489;48.508;9.206;2023-02-13T14:21:43;23.30;99.90
12845;DHT22;6489;48.508;9.206;2023-02-13T14:25:06;23.30;99.90
12845;DHT22;6489;48.508;9.206;2023-02-13T14:28:53;23.30;99.90
12845;DHT22;6489;48.508;9.206;2023-02-13T14:32:21;23.30;99.90
12845;DHT22;6489;48.508;9.206;2023-02-13T14:35:45;23.10;99.90
12845;DHT22;6489;48.508;9.206;2023-02-13T14:39:26;22.90;99.90
12845;DHT22;6489;48.508;9.206;2023-02-13T14:42:52;22.60;99.90
12845;DHT22;6489;48.508;9.206;2023-02-13T14:46:30;22.10;99.90
12845;DHT22;6489;48.508;9.206;2023-02-13T14:49:54;22.10;99.90
12845;DHT22;6489;48.508;9.206;2023-02-13T14:53:20;21.20;99.90
12845;DHT22;6489;48.508;9.206;2023-02-13T14:56:46;21.20;99.90
12845;DHT22;6489;48.508;9.206;2023-02-13T15:00:18;20.60;99.90
12845;DHT22;6489;48.508;9.206;2023-02-13T15:03:45;20.50;99.90
12845;DHT22;6489;48.508;9.206;2023-02-13T15:07:14;20.50;99.90
12845;DHT22;6489;48.508;9.206;2023-02-13T15:10:41;20.60;99.90
12845;DHT22;6489;48.508;9.206;2023-02-13T15:14:20;20.70;99.90
12845;DHT22;6489;48.508;9.206;2023-02-13T15:17:43;20.70;99.90
12845;DHT22;6489;48.508;9.206;2023-02-13T15:21:05;21.00;99.90
12845;DHT22;6489;48.508;9.206;2023-02-13T15:24:31;21.00;99.90
12845;DHT22;6489;48.508;9.206;2023-02-13T15:27:56;21.30;99.90
12845;DHT22;6489;48.508;9.206;2023-02-13T15:31:23;21.30;99.90
12845;DHT22;6489;48.508;9.206;2023-02-13T15:34:46;21.50;99.90
12845;DHT22;6489;48.508;9.206;2023-02-13T15:38:19;21.60;99.90
12845;DHT22;6489;48.508;9.206;2023-02-13T15:41:43;21.60;99.90
12845;DHT22;6489;48.508;9.206;2023-02-13T15:45:13;21.60;99.90
12845;DHT22;6489;48.508;9.206;2023-02-13T15:48:36;21.60;99.90
12845;DHT22;6489;48.508;9.206;2023-02-13T15:52:04;21.60;99.90
12845;DHT22;6489;48.508;9.206;2023-02-13T15:55:28;21.60;99.90
12845;DHT22;6489;48.508;9.206;2023-02-13T15:58:52;21.60;99.90
12845;DHT22;6489;48.508;9.206;2023-02-13T16:02:18;21.70;99.90
12845;DHT22;6489;48.508;9.206;2023-02-13T16:05:44;21.70;99.90
12845;DHT22;6489;48.508;9.206;2023-02-13T16:09:22;21.60;99.90
12845;DHT22;6489;48.508;9.206;2023-02-13T16:12:46;21.60;99.90
12845;DHT22;6489;48.508;9.206;2023-02-13T16:16:09;21.60;99.90
12845;DHT22;6489;48.508;9.206;2023-02-13T16:19:35;21.50;99.90
12845;DHT22;6489;48.508;9.206;2023-02-13T16:23:01;21.50;99.90
12845;DHT22;6489;48.508;9.206;2023-02-13T16:26:25;21.30;99.90
12845;DHT22;6489;48.508;9.206;2023-02-13T16:29:54;21.20;99.90
12845;DHT22;6489;48.508;9.206;2023-02-13T16:33:26;21.10;99.90
12845;DHT22;6489;48.508;9.206;2023-02-13T16:36:49;21.00;99.90
12845;DHT22;6489;48.508;9.206;2023-02-13T16:40:35;21.00;99.90
12845;DHT22;6489;48.508;9.206;2023-02-13T16:43:59;21.10;99.90
12845;DHT22;6489;48.508;9.206;2023-02-13T16:47:22;21.10;99.90
12845;DHT22;6489;48.508;9.206;2023-02-13T16:50:45;21.10;99.90
12845;DHT22;6489;48.508;9.206;2023-02-13T16:54:17;21.10;99.90
12845;DHT22;6489;48.508;9.206;2023-02-13T16:57:41;20.90;99.90
12845;DHT22;6489;48.508;9.206;2023-02-13T17:01:04;20.80;99.90
12845;DHT22;6489;48.508;9.206;2023-02-13T17:04:26;20.60;99.90
12845;DHT22;6489;48.508;9.206;2023-02-13T17:07:49;20.60;99.90
12845;DHT22;6489;48.508;9.206;2023-02-13T17:11:17;20.60;99.90
12845;DHT22;6489;48.508;9.206;2023-02-13T17:14:40;20.70;99.90
12845;DHT22;6489;48.508;9.206;2023-02-13T17:18:02;20.60;99.90
12845;DHT22;6489;48.508;9.206;2023-02-13T17:21:24;20.80;99.90
12845;DHT22;6489;48.508;9.206;2023-02-13T17:24:46;20.90;99.90
12845;DHT22;6489;48.508;9.206;2023-02-13T17:28:11;20.90;99.90
12845;DHT22;6489;48.508;9.206;2023-02-13T17:31:35;21.00;99.90
12845;DHT22;6489;48.508;9.206;2023-02-13T17:34:57;20.90;99.90
12845;DHT22;6489;48.508;9.206;2023-02-13T17:38:20;21.00;99.90
12845;DHT22;6489;48.508;9.206;2023-02-13T17:42:07;21.00;99.90
12845;DHT22;6489;48.508;9.206;2023-02-13T17:45:31;21.10;99.90
12845;DHT22;6489;48.508;9.206;2023-02-13T17:48:55;21.10;99.90
12845;DHT22;6489;48.508;9.206;2023-02-13T17:52:18;21.10;99.90
12845;DHT22;6489;48.508;9.206;2023-02-13T17:55:40;21.10;99.90
12845;DHT22;6489;48.508;9.206;2023-02-13T17:59:02;21.10;99.90
12845;DHT22;6489;48.508;9.206;2023-02-13T18:02:24;21.20;99.90
12845;DHT22;6489;48.508;9.206;2023-02-13T18:05:49;21.20;99.90
12845;DHT22;6489;48.508;9.206;2023-02-13T18:09:11;21.20;99.90
12845;DHT22;6489;48.508;9.206;2023-02-13T18:12:33;21.10;99.90
12845;DHT22;6489;48.508;9.206;2023-02-13T18:15:55;21.10;99.90
12845;DHT22;6489;48.508;9.206;2023-02-13T18:19:17;21.10;99.90
12845;DHT22;6489;48.508;9.206;2023-02-13T18:22:41;21.10;99.90
12845;DHT22;6489;48.508;9.206;2023-02-13T18:26:05;21.10;99.90
12845;DHT22;6489;48.508;9.206;2023-02-13T18:29:28;21.10;99.90
12845;DHT22;6489;48.508;9.206;2023-02-13T18:32:50;21.00;99.90
12845;DHT22;6489;48.508;9.206;2023-02-13T18:36:13;21.00;99.90
12845;DHT22;6489;48.508;9.206;2023-02-13T18:39:37;20.90;99.90
12845;DHT22;6489;48.508;9.206;2023-02-13T18:42:59;20.90;99.90
12845;DHT22;6489;48.508;9.206;2023-02-13T18:46:21;20.90;99.90
12845;DHT22;6489;48.508;9.206;2023-02-13T18:49:44;20.90;99.90
12845;DHT22;6489;48.508;9.206;2023-02-13T18:53:06;20.80;99.90
12845;DHT22;6489;48.508;9.206;2023-02-13T18:56:30;20.80;99.90
12845;DHT22;6489;48.508;9.206;2023-02-13T18:59:52;20.80;99.90
12845;DHT22;6489;48.508;9.206;2023-02-13T19:03:14;20.80;99.90
12845;DHT22;6489;48.508;9.206;2023-02-13T19:06:38;20.80;99.90
12845;DHT22;6489;48.508;9.206;2023-02-13T19:10:01;20.70;99.90
12845;DHT22;6489;48.508;9.206;2023-02-13T19:13:24;20.70;99.90
12845;DHT22;6489;48.508;9.206;2023-02-13T19:16:46;20.70;99.90
12845;DHT22;6489;48.508;9.206;2023-02-13T19:20:09;20.70;99.90
12845;DHT22;6489;48.508;9.206;2023-02-13T19:23:31;20.60;99.90
12845;DHT22;6489;48.508;9.206;2023-02-13T19:26:53;20.60;99.90
12845;DHT22;6489;48.508;9.206;2023-02-13T19:30:17;20.60;99.90
12845;DHT22;6489;48.508;9.206;2023-02-13T19:33:39;20.60;99.90
12845;DHT22;6489;48.508;9.206;2023-02-13T19:37:01;20.60;99.90
12845;DHT22;6489;48.508;9.206;2023-02-13T19:43:46;20.60;99.90
12845;DHT22;6489;48.508;9.206;2023-02-13T19:47:11;20.60;99.90
12845;DHT22;6489;48.508;9.206;2023-02-13T19:50:33;20.60;99.90
12845;DHT22;6489;48.508;9.206;2023-02-13T19:53:56;20.60;99.90
12845;DHT22;6489;48.508;9.206;2023-02-13T19:57:18;20.50;99.90
12845;DHT22;6489;48.508;9.206;2023-02-13T20:00:41;20.60;99.90
12845;DHT22;6489;48.508;9.206;2023-02-13T20:04:04;20.60;99.90
12845;DHT22;6489;48.508;9.206;2023-02-13T20:07:26;20.50;99.90
12845;DHT22;6489;48.508;9.206;2023-02-13T20:10:48;20.50;99.90
12845;DHT22;6489;48.508;9.206;2023-02-13T20:14:11;20.50;99.90
12845;DHT22;6489;48.508;9.206;2023-02-13T20:17:35;20.50;99.90
12845;DHT22;6489;48.508;9.206;2023-02-13T20:20:59;20.50;99.90
12845;DHT22;6489;48.508;9.206;2023-02-13T20:24:21;20.50;99.90
12845;DHT22;6489;48.508;9.206;2023-02-13T20:27:43;20.50;99.90
12845;DHT22;6489;48.508;9.206;2023-02-13T20:31:08;20.50;99.90
12845;DHT22;6489;48.508;9.206;2023-02-13T20:34:30;20.50;99.90
12845;DHT22;6489;48.508;9.206;2023-02-13T20:37:54;20.40;99.90
12845;DHT22;6489;48.508;9.206;2023-02-13T20:41:20;20.50;99.90
12845;DHT22;6489;48.508;9.206;2023-02-13T20:44:42;20.40;99.90
12845;DHT22;6489;48.508;9.206;2023-02-13T20:48:04;20.50;99.90
12845;DHT22;6489;48.508;9.206;2023-02-13T20:51:27;20.40;99.90
12845;DHT22;6489;48.508;9.206;2023-02-13T20:54:50;20.40;99.90
12845;DHT22;6489;48.508;9.206;2023-02-13T20:58:12;20.40;99.90
12845;DHT22;6489;48.508;9.206;2023-02-13T21:01:36;20.40;99.90
12845;DHT22;6489;48.508;9.206;2023-02-13T21:05:01;20.40;99.90
12845;DHT22;6489;48.508;9.206;2023-02-13T21:08:22;20.40;99.90
12845;DHT22;6489;48.508;9.206;2023-02-13T21:11:46;20.40;99.90
12845;DHT22;6489;48.508;9.206;2023-02-13T21:15:08;20.30;99.90
12845;DHT22;6489;48.508;9.206;2023-02-13T21:18:30;20.40;99.90
12845;DHT22;6489;48.508;9.206;2023-02-13T21:21:52;20.30;99.90
12845;DHT22;6489;48.508;9.206;2023-02-13T21:25:14;20.40;99.90
12845;DHT22;6489;48.508;9.206;2023-02-13T21:28:38;20.30;99.90
12845;DHT22;6489;48.508;9.206;2023-02-13T21:32:00;20.30;99.90
12845;DHT22;6489;48.508;9.206;2023-02-13T21:35:22;20.30;99.90
12845;DHT22;6489;48.508;9.206;2023-02-13T21:38:44;20.30;99.90
12845;DHT22;6489;48.508;9.206;2023-02-13T21:42:06;20.30;99.90
12845;DHT22;6489;48.508;9.206;2023-02-13T21:45:29;20.30;99.90
12845;DHT22;6489;48.508;9.206;2023-02-13T21:48:52;20.30;99.90
12845;DHT22;6489;48.508;9.206;2023-02-13T21:52:14;20.30;99.90
12845;DHT22;6489;48.508;9.206;2023-02-13T21:55:36;20.30;99.90
12845;DHT22;6489;48.508;9.206;2023-02-13T21:58:58;20.30;99.90
12845;DHT22;6489;48.508;9.206;2023-02-13T22:02:21;20.30;99.90
12845;DHT22;6489;48.508;9.206;2023-02-13T22:05:45;20.30;99.90
12845;DHT22;6489;48.508;9.206;2023-02-13T22:09:09;20.20;99.90
12845;DHT22;6489;48.508;9.206;2023-02-13T22:12:31;20.30;99.90
12845;DHT22;6489;48.508;9.206;2023-02-13T22:15:59;20.20;99.90
12845;DHT22;6489;48.508;9.206;2023-02-13T22:19:23;20.30;99.90
12845;DHT22;6489;48.508;9.206;2023-02-13T22:22:44;20.20;99.90
12845;DHT22;6489;48.508;9.206;2023-02-13T22:26:07;20.20;99.90
12845;DHT22;6489;48.508;9.206;2023-02-13T22:29:29;20.20;99.90
12845;DHT22;6489;48.508;9.206;2023-02-13T22:32:51;20.20;99.90
12845;DHT22;6489;48.508;9.206;2023-02-13T22:36:14;20.20;99.90